Fort Madison Municipal Airport


Codes: KFSW/FMS
Name: Fort Madison Municipal Airport
City: Fort Madison
Country: United States
Elevation: 724 ft.

Photos at Fort Madison Municipal Airport


   Photos courtesy of SpottingLog. You can add your own sightings and photos by signing up for a free trial today.



No photos found.

Weather at Fort Madison Municipal Airport


Time (UTC)DescriptionTempratureWindCloud coverageVisibilityPressureHumidity
23-May-2024 21:00Clear Sky27°C11 mph, S0%10000m1012hPa32%
24-May-2024 00:00Clear Sky25°C7 mph, SE7%10000m1011hPa47%
24-May-2024 03:00Clear Sky21°C9 mph, SE0%10000m1010hPa71%
24-May-2024 06:00Clear Sky17°C9 mph, SE6%10000m1009hPa91%
24-May-2024 09:00Overcast Clouds18°C13 mph, SE87%10000m1006hPa81%
24-May-2024 12:00Moderate Rain18°C9 mph, SE93%10000m1005hPa97%
24-May-2024 15:00Overcast Clouds22°C13 mph, S100%10000m1005hPa89%
24-May-2024 18:00Light Rain26°C18 mph, S99%10000m1004hPa71%
24-May-2024 21:00Light Rain23°C16 mph, SW98%10000m1004hPa83%
25-May-2024 00:00Light Rain19°C9 mph, W86%10000m1005hPa86%
25-May-2024 03:00Scattered Clouds15°C9 mph, NW33%10000m1008hPa88%
25-May-2024 06:00Few Clouds12°C9 mph, NW17%10000m1010hPa89%
25-May-2024 09:00Clear Sky10°C7 mph, NW0%10000m1012hPa92%
25-May-2024 12:00Clear Sky11°C4 mph, N3%10000m1013hPa85%
25-May-2024 15:00Clear Sky17°C4 mph, NE6%10000m1013hPa57%
25-May-2024 18:00Clear Sky21°C7 mph, SE5%10000m1012hPa46%
25-May-2024 21:00Scattered Clouds22°C11 mph, SE50%10000m1010hPa48%
26-May-2024 00:00Scattered Clouds20°C9 mph, SE47%10000m1009hPa67%
26-May-2024 03:00Broken Clouds17°C11 mph, SE78%10000m1007hPa67%
26-May-2024 06:00Light Rain16°C11 mph, SE88%10000m1005hPa81%
26-May-2024 09:00Heavy Intensity Rain16°C11 mph, SE100%3793m1000hPa91%
26-May-2024 12:00Heavy Intensity Rain18°C13 mph, SE100%10000m999hPa97%
26-May-2024 15:00Light Rain22°C11 mph, SE99%10000m996hPa95%
26-May-2024 18:00Moderate Rain25°C13 mph, W90%10000m995hPa81%
26-May-2024 21:00Moderate Rain23°C16 mph, NW49%10000m997hPa73%
27-May-2024 00:00Light Rain21°C13 mph, W39%10000m1000hPa82%
27-May-2024 03:00Clear Sky17°C7 mph, NW0%10000m1003hPa96%
27-May-2024 06:00Clear Sky14°C7 mph, NW1%10000m1005hPa96%
27-May-2024 09:00Clear Sky13°C7 mph, W0%10000m1005hPa96%
27-May-2024 12:00Scattered Clouds13°C9 mph, NW33%10000m1008hPa89%
27-May-2024 15:00Light Rain14°C9 mph, NW100%10000m1008hPa83%
27-May-2024 18:00Broken Clouds19°C16 mph, NW82%10000m1010hPa64%
27-May-2024 21:00Broken Clouds19°C16 mph, NW65%10000m1011hPa63%
28-May-2024 00:00Scattered Clouds18°C9 mph, NW43%10000m1012hPa75%
28-May-2024 03:00Clear Sky14°C7 mph, NW0%10000m1014hPa88%
28-May-2024 06:00Clear Sky13°C7 mph, W0%10000m1014hPa90%
28-May-2024 09:00Clear Sky12°C7 mph, W0%10000m1015hPa93%
28-May-2024 12:00Clear Sky13°C9 mph, SW0%10000m1016hPa89%
28-May-2024 15:00Clear Sky19°C13 mph, W4%10000m1014hPa71%
28-May-2024 18:00Clear Sky23°C16 mph, SW2%10000m1013hPa61%